createdAt,value
2022-11-08T00:00:08.336Z,101350.56
2022-11-08T00:02:55.831Z,101349.16
2022-11-08T00:05:41.435Z,101357.31
2022-11-08T00:08:27.012Z,101353.25
2022-11-08T00:11:12.548Z,101347.44
2022-11-08T00:13:58.586Z,101347.72
2022-11-08T00:16:26.196Z,101348.16
2022-11-08T00:18:53.418Z,101345.19
2022-11-08T00:21:20.310Z,101347.25
2022-11-08T00:23:47.661Z,101343.81
2022-11-08T00:26:14.534Z,101342.34
2022-11-08T00:28:41.793Z,101341.19
2022-11-08T00:31:08.641Z,101341.69
2022-11-08T00:33:35.951Z,101339.00
2022-11-08T00:36:03.888Z,101343.19
2022-11-08T00:38:31.288Z,101345.34
2022-11-08T00:40:58.416Z,101342.16
2022-11-08T00:43:25.662Z,101344.00
2022-11-08T00:45:52.558Z,101350.94
2022-11-08T00:48:20.055Z,101347.53
2022-11-08T00:50:47.230Z,101348.72
2022-11-08T00:53:14.412Z,101351.28
2022-11-08T00:55:41.367Z,101348.66
2022-11-08T00:58:08.850Z,101342.88
2022-11-08T01:00:35.779Z,101347.91
2022-11-08T01:03:21.348Z,101354.91
2022-11-08T01:05:49.325Z,101352.88
2022-11-08T01:08:17.515Z,101354.06
2022-11-08T01:10:45.756Z,101344.13
2022-11-08T01:13:13.559Z,101344.44
2022-11-08T01:15:41.797Z,101344.44
2022-11-08T01:18:10.282Z,101349.63
2022-11-08T01:20:40.471Z,101356.94
2022-11-08T01:23:08.138Z,101353.72
2022-11-08T01:25:38.746Z,101351.44
2022-11-08T01:28:06.064Z,101353.53
2022-11-08T01:30:36.022Z,101343.25
2022-11-08T01:33:03.486Z,101347.63
2022-11-08T01:35:31.960Z,101353.88
2022-11-08T01:37:59.870Z,101347.09
2022-11-08T01:40:27.961Z,101345.25
2022-11-08T01:42:55.439Z,101346.38
2022-11-08T01:45:40.906Z,101344.34
2022-11-08T01:48:08.131Z,101348.13
2022-11-08T01:50:34.999Z,101341.38
2022-11-08T01:53:02.243Z,101347.91
2022-11-08T01:55:36.382Z,101350.66
2022-11-08T01:58:06.759Z,101352.88
2022-11-08T02:00:34.326Z,101345.97
2022-11-08T02:03:01.940Z,101353.06
2022-11-08T02:05:29.824Z,101343.75
2022-11-08T02:07:57.160Z,101345.78
2022-11-08T02:10:26.481Z,101350.03
2022-11-08T02:12:54.362Z,101341.13
2022-11-08T02:15:23.295Z,101350.13
2022-11-08T02:17:50.198Z,101347.13
2022-11-08T02:20:17.813Z,101339.91
2022-11-08T02:22:55.341Z,101336.47
2022-11-08T02:25:22.646Z,101336.03
2022-11-08T02:27:49.527Z,101340.44
2022-11-08T02:30:16.783Z,101328.94
2022-11-08T02:32:43.794Z,101331.13
2022-11-08T02:35:13.881Z,101332.13
2022-11-08T02:37:41.300Z,101337.22
2022-11-08T02:40:08.908Z,101335.06
2022-11-08T02:42:37.710Z,101338.97
2022-11-08T02:45:05.906Z,101338.84
2022-11-08T02:47:33.061Z,101343.53
2022-11-08T02:50:00.467Z,101332.03
2022-11-08T02:52:27.349Z,101341.56
2022-11-08T02:54:54.898Z,101343.78
2022-11-08T02:57:21.740Z,101333.25
2022-11-08T02:59:49.441Z,101331.06
2022-11-08T03:02:16.466Z,101331.06
2022-11-08T03:04:43.763Z,101338.53
2022-11-08T03:07:10.625Z,101333.84
2022-11-08T03:09:38.010Z,101328.44
2022-11-08T03:12:04.967Z,101333.59
2022-11-08T03:14:32.293Z,101337.81
2022-11-08T03:16:59.190Z,101336.22
2022-11-08T03:19:26.405Z,101333.50
2022-11-08T03:21:53.271Z,101342.72
2022-11-08T03:24:20.564Z,101341.25
2022-11-08T03:26:47.703Z,101337.56
2022-11-08T03:29:14.937Z,101344.06
2022-11-08T03:31:41.811Z,101352.28
2022-11-08T03:34:10.506Z,101344.75
2022-11-08T03:36:37.461Z,101347.84
2022-11-08T03:39:04.677Z,101336.78
2022-11-08T03:41:31.534Z,101340.00
2022-11-08T03:43:58.824Z,101336.00
2022-11-08T03:46:25.701Z,101338.75
2022-11-08T03:48:52.921Z,101338.69
2022-11-08T03:51:19.839Z,101332.28
2022-11-08T03:53:47.076Z,101333.97
2022-11-08T03:56:14.041Z,101328.22
2022-11-08T03:58:41.453Z,101327.97
2022-11-08T04:01:08.529Z,101341.44
2022-11-08T04:03:36.052Z,101330.72
2022-11-08T04:06:03.414Z,101340.31
2022-11-08T04:08:30.896Z,101331.28
2022-11-08T04:11:18.287Z,101336.34
2022-11-08T04:14:04.946Z,101335.69
2022-11-08T04:16:32.716Z,101334.47
2022-11-08T04:19:19.079Z,101326.94
2022-11-08T04:21:47.487Z,101331.16
2022-11-08T04:24:14.701Z,101329.50
2022-11-08T04:26:41.706Z,101334.22
2022-11-08T04:29:09.054Z,101337.22
2022-11-08T04:31:36.242Z,101336.47
2022-11-08T04:34:03.495Z,101334.16
2022-11-08T04:36:30.490Z,101327.97
2022-11-08T04:38:57.791Z,101333.25
2022-11-08T04:41:25.662Z,101323.00
2022-11-08T04:43:54.355Z,101326.63
2022-11-08T04:46:25.486Z,101328.81
2022-11-08T04:48:54.124Z,101329.38
2022-11-08T04:51:23.105Z,101333.00
2022-11-08T04:53:51.064Z,101332.09
2022-11-08T04:56:19.802Z,101327.34
2022-11-08T04:58:48.195Z,101327.78
2022-11-08T05:01:19.230Z,101330.28
2022-11-08T05:03:47.354Z,101329.28
2022-11-08T05:06:16.308Z,101332.50
2022-11-08T05:08:43.643Z,101330.00
2022-11-08T05:11:12.115Z,101344.72
2022-11-08T05:13:39.429Z,101341.69
2022-11-08T05:16:08.028Z,101335.59
2022-11-08T05:18:35.256Z,101333.28
2022-11-08T05:21:20.801Z,101325.72
2022-11-08T05:23:48.822Z,101332.13
2022-11-08T05:26:16.322Z,101337.59
2022-11-08T05:28:43.573Z,101330.78
2022-11-08T05:31:10.548Z,101339.41
2022-11-08T05:33:37.828Z,101338.72
2022-11-08T05:36:06.374Z,101334.69
2022-11-08T05:38:33.855Z,101337.88
2022-11-08T05:41:04.861Z,101336.75
2022-11-08T05:43:32.317Z,101334.22
2022-11-08T05:45:59.421Z,101332.25
2022-11-08T05:48:26.721Z,101340.09
2022-11-08T05:50:54.038Z,101335.41
2022-11-08T05:53:21.740Z,101335.09
2022-11-08T05:55:49.456Z,101329.75
2022-11-08T05:58:17.139Z,101327.19
2022-11-08T06:00:44.076Z,101333.56
2022-11-08T06:03:11.441Z,101330.03
2022-11-08T06:05:38.520Z,101326.38
2022-11-08T06:08:05.735Z,101330.00
2022-11-08T06:10:32.747Z,101332.28
2022-11-08T06:13:01.118Z,101334.22
2022-11-08T06:15:28.357Z,101343.59
2022-11-08T06:17:55.657Z,101348.91
2022-11-08T06:20:22.615Z,101350.53
2022-11-08T06:22:50.295Z,101352.84
2022-11-08T06:25:17.211Z,101359.13
2022-11-08T06:27:44.592Z,101352.97
2022-11-08T06:30:11.733Z,101350.94
2022-11-08T06:32:39.017Z,101351.50
2022-11-08T06:35:06.360Z,101346.28
2022-11-08T06:37:33.671Z,101345.38
2022-11-08T06:40:00.548Z,101349.53
2022-11-08T06:42:27.827Z,101353.59
2022-11-08T06:44:54.774Z,101345.94
2022-11-08T06:47:21.990Z,101351.16
2022-11-08T06:49:49.082Z,101349.56
2022-11-08T06:52:16.470Z,101350.91
2022-11-08T06:54:43.463Z,101343.00
2022-11-08T06:57:10.907Z,101342.28
2022-11-08T06:59:38.988Z,101351.03
2022-11-08T07:02:07.086Z,101359.50
2022-11-08T07:04:34.196Z,101354.22
2022-11-08T07:07:01.609Z,101353.81
2022-11-08T07:09:28.501Z,101357.50
2022-11-08T07:11:56.124Z,101358.38
2022-11-08T07:14:22.932Z,101358.50
2022-11-08T07:16:50.079Z,101361.84
2022-11-08T07:19:17.003Z,101355.09
2022-11-08T07:21:44.185Z,101357.94
2022-11-08T07:24:11.197Z,101351.00
2022-11-08T07:26:38.497Z,101356.31
2022-11-08T07:29:05.335Z,101355.81
2022-11-08T07:31:32.525Z,101356.81
2022-11-08T07:33:59.419Z,101353.19
2022-11-08T07:36:26.553Z,101356.38
2022-11-08T07:38:53.456Z,101353.75
2022-11-08T07:41:20.652Z,101352.66
2022-11-08T07:43:48.774Z,101355.16
2022-11-08T07:46:16.072Z,101355.03
2022-11-08T07:48:43.179Z,101352.16
2022-11-08T07:51:10.364Z,101357.09
2022-11-08T07:53:37.236Z,101357.75
2022-11-08T07:56:04.639Z,101362.81
2022-11-08T07:58:31.490Z,101356.41
2022-11-08T08:01:03.446Z,101357.97
2022-11-08T08:03:30.498Z,101363.75
2022-11-08T08:06:00.951Z,101350.47
2022-11-08T08:08:29.107Z,101350.00
2022-11-08T08:10:57.552Z,101344.41
2022-11-08T08:13:24.410Z,101349.69
2022-11-08T08:15:51.609Z,101349.50
2022-11-08T08:18:21.053Z,101345.19
2022-11-08T08:20:48.510Z,101349.66
2022-11-08T08:23:15.615Z,101353.47
2022-11-08T08:25:42.973Z,101348.34
2022-11-08T08:28:10.511Z,101351.97
2022-11-08T08:30:38.239Z,101344.50
2022-11-08T08:33:27.367Z,101344.50
2022-11-08T08:35:55.421Z,101343.66
2022-11-08T08:38:22.320Z,101333.66
2022-11-08T08:40:50.107Z,101330.59
2022-11-08T08:43:17.367Z,101320.91
2022-11-08T08:45:44.940Z,101331.09
2022-11-08T08:48:11.785Z,101327.50
2022-11-08T08:50:38.941Z,101327.88
2022-11-08T08:53:05.907Z,101325.56
2022-11-08T08:55:35.310Z,101321.75
2022-11-08T08:58:02.250Z,101317.19
2022-11-08T09:03:16.695Z,101320.59
2022-11-08T09:05:46.780Z,101311.25
2022-11-08T09:08:14.674Z,101308.44
2022-11-08T09:10:42.347Z,101313.34
2022-11-08T09:13:09.417Z,101311.31
2022-11-08T09:15:36.595Z,101313.03
2022-11-08T09:18:03.551Z,101309.72
2022-11-08T09:20:30.949Z,101312.78
2022-11-08T09:23:01.247Z,101307.75
2022-11-08T09:25:28.648Z,101308.56
2022-11-08T09:27:56.088Z,101316.16
2022-11-08T09:30:23.359Z,101310.44
2022-11-08T09:33:02.023Z,101304.91
2022-11-08T09:35:30.360Z,101304.34
2022-11-08T09:37:57.508Z,101306.81
2022-11-08T09:40:30.961Z,101301.72
2022-11-08T09:43:18.692Z,101312.19
2022-11-08T09:45:50.052Z,101301.91
2022-11-08T09:48:22.248Z,101310.41
2022-11-08T09:50:52.359Z,101303.00
2022-11-08T09:53:19.552Z,101301.56
2022-11-08T09:55:46.753Z,101310.88
2022-11-08T09:58:27.440Z,101302.53
2022-11-08T10:00:54.784Z,101301.78
2022-11-08T10:03:24.101Z,101303.50
2022-11-08T10:05:54.384Z,101287.66
2022-11-08T10:08:26.748Z,101295.00
2022-11-08T10:10:58.380Z,101296.53
2022-11-08T10:13:43.238Z,101298.03
2022-11-08T10:16:10.415Z,101298.63
2022-11-08T10:18:40.553Z,101295.81
2022-11-08T10:21:13.601Z,101285.66
2022-11-08T10:23:46.566Z,101292.69
2022-11-08T10:26:24.140Z,101293.94
2022-11-08T10:29:07.716Z,101286.53
2022-11-08T10:31:35.700Z,101283.25
2022-11-08T10:34:10.255Z,101282.06
2022-11-08T10:36:42.108Z,101275.38
2022-11-08T10:39:09.242Z,101278.19
2022-11-08T10:41:43.215Z,101278.44
2022-11-08T10:44:15.984Z,101273.19
2022-11-08T10:46:47.416Z,101273.97
2022-11-08T10:49:14.553Z,101270.56
2022-11-08T10:51:42.931Z,101273.63
2022-11-08T10:54:30.043Z,101264.56
2022-11-08T10:56:57.096Z,101268.59
2022-11-08T10:59:29.910Z,101255.53
2022-11-08T11:01:56.808Z,101258.53
2022-11-08T11:04:28.591Z,101256.94
2022-11-08T11:06:55.534Z,101240.53
2022-11-08T11:09:26.957Z,101248.19
2022-11-08T11:11:58.215Z,101248.47
2022-11-08T11:14:25.784Z,101250.31
2022-11-08T11:16:55.812Z,101250.34
2022-11-08T11:19:23.880Z,101242.25
2022-11-08T11:21:56.227Z,101249.91
2022-11-08T11:24:23.596Z,101243.47
2022-11-08T11:26:56.843Z,101242.41
2022-11-08T11:29:27.619Z,101241.03
2022-11-08T11:31:55.084Z,101244.22
2022-11-08T11:34:27.707Z,101238.28
2022-11-08T11:37:15.523Z,101243.84
2022-11-08T11:39:54.705Z,101237.44
2022-11-08T11:42:45.184Z,101231.59
2022-11-08T11:45:21.727Z,101230.00
2022-11-08T11:47:54.422Z,101231.66
2022-11-08T11:50:29.799Z,101238.22
2022-11-08T11:52:58.736Z,101229.97
2022-11-08T11:55:43.032Z,101229.22
2022-11-08T11:58:29.172Z,101230.69
2022-11-08T12:01:02.161Z,101229.44
2022-11-08T12:03:43.809Z,101233.28
2022-11-08T12:06:10.937Z,101230.44
2022-11-08T12:08:47.688Z,101224.03
2022-11-08T12:11:28.116Z,101225.25
2022-11-08T12:14:07.204Z,101220.34
2022-11-08T12:16:42.115Z,101220.91
2022-11-08T12:19:15.076Z,101219.88
2022-11-08T12:21:41.901Z,101211.69
2022-11-08T12:24:27.039Z,101208.44
2022-11-08T12:27:12.919Z,101201.31
2022-11-08T12:30:03.569Z,101206.13
2022-11-08T12:32:33.755Z,101199.59
2022-11-08T12:35:00.544Z,101201.81
2022-11-08T12:37:39.707Z,101201.44
2022-11-08T12:40:17.581Z,101199.44
2022-11-08T12:43:00.248Z,101194.41
2022-11-08T12:45:46.070Z,101188.94
2022-11-08T12:48:12.886Z,101190.41
2022-11-08T12:50:45.776Z,101189.03
2022-11-08T12:53:12.585Z,101188.13
2022-11-08T12:55:42.047Z,101188.56
2022-11-08T12:58:24.652Z,101173.03
2022-11-08T13:00:53.183Z,101164.44
2022-11-08T13:03:29.635Z,101163.44
2022-11-08T13:06:04.788Z,101166.38
2022-11-08T13:08:39.029Z,101172.69
2022-11-08T13:11:09.224Z,101169.41
2022-11-08T13:13:50.584Z,101165.03
2022-11-08T13:16:21.755Z,101171.78
2022-11-08T13:18:56.203Z,101164.72
2022-11-08T13:21:26.025Z,101164.72
2022-11-08T13:23:53.860Z,101163.84
2022-11-08T13:26:27.045Z,101160.28
2022-11-08T13:28:54.346Z,101161.50
2022-11-08T13:31:40.705Z,101160.84
2022-11-08T13:34:13.986Z,101158.38
2022-11-08T13:37:12.969Z,101154.78
2022-11-08T13:39:40.110Z,101147.31
2022-11-08T13:42:16.265Z,101138.69
2022-11-08T13:44:52.640Z,101135.13
2022-11-08T13:47:31.800Z,101134.81
2022-11-08T13:50:17.488Z,101131.72
2022-11-08T13:52:44.401Z,101127.94
2022-11-08T13:55:30.119Z,101137.84
2022-11-08T13:57:58.682Z,101139.25
2022-11-08T14:00:43.461Z,101133.88
2022-11-08T14:03:29.122Z,101129.31
2022-11-08T14:05:56.851Z,101117.72
2022-11-08T14:08:24.546Z,101117.34
2022-11-08T14:11:14.405Z,101115.59
2022-11-08T14:14:11.649Z,101118.13
2022-11-08T14:16:45.036Z,101108.72
2022-11-08T14:19:17.787Z,101100.72
2022-11-08T14:21:49.895Z,101084.66
2022-11-08T14:24:19.138Z,101086.88
2022-11-08T14:26:46.995Z,101083.03
2022-11-08T14:29:22.128Z,101085.81
2022-11-08T14:32:00.506Z,101088.03
2022-11-08T14:34:28.442Z,101098.56
2022-11-08T14:36:56.350Z,101098.19
2022-11-08T14:39:28.904Z,101107.41
2022-11-08T14:41:57.655Z,101099.38
2022-11-08T14:44:25.050Z,101103.22
2022-11-08T14:46:53.236Z,101107.28
2022-11-08T14:49:21.566Z,101094.38
2022-11-08T14:52:07.252Z,101088.25
2022-11-08T14:54:39.468Z,101092.06
2022-11-08T14:57:26.837Z,101097.34
2022-11-08T14:59:56.484Z,101098.66
2022-11-08T15:02:24.904Z,101090.00
2022-11-08T15:04:52.083Z,101087.09
2022-11-08T15:07:20.781Z,101080.22
2022-11-08T15:09:48.907Z,101081.47
2022-11-08T15:12:20.956Z,101086.34
2022-11-08T15:14:50.972Z,101090.94
2022-11-08T15:17:31.700Z,101102.06
2022-11-08T15:20:06.120Z,101092.72
2022-11-08T15:22:35.389Z,101091.72
2022-11-08T15:25:14.886Z,101091.78
2022-11-08T15:27:54.728Z,101089.56
2022-11-08T15:30:23.050Z,101085.13
2022-11-08T15:32:50.688Z,101084.75
2022-11-08T15:35:29.764Z,101089.81
2022-11-08T15:38:04.315Z,101089.06
2022-11-08T15:40:32.580Z,101086.91
2022-11-08T15:43:00.281Z,101078.63
2022-11-08T15:45:29.013Z,101075.91
2022-11-08T15:48:08.603Z,101076.09
2022-11-08T15:50:35.439Z,101070.72
2022-11-08T15:53:03.407Z,101070.91
2022-11-08T15:55:38.077Z,101059.88
2022-11-08T15:58:10.731Z,101063.38
2022-11-08T16:00:38.463Z,101071.00
2022-11-08T16:03:05.705Z,101068.53
2022-11-08T16:05:32.535Z,101060.47
2022-11-08T16:08:00.132Z,101059.69
2022-11-08T16:10:46.558Z,101049.06
2022-11-08T16:13:19.560Z,101051.59
2022-11-08T16:15:48.141Z,101045.56
2022-11-08T16:18:16.346Z,101041.63
2022-11-08T16:20:43.828Z,101034.59
2022-11-08T16:23:11.589Z,101033.66
2022-11-08T16:25:39.880Z,101040.59
2022-11-08T16:28:14.671Z,101041.47
2022-11-08T16:30:46.426Z,101033.94
2022-11-08T16:33:18.555Z,101041.28
2022-11-08T16:35:45.916Z,101050.19
2022-11-08T16:38:13.146Z,101033.81
2022-11-08T16:40:42.927Z,101040.31
2022-11-08T16:43:11.500Z,101044.00
2022-11-08T16:46:03.923Z,101040.03
2022-11-08T16:48:26.739Z,101037.69
2022-11-08T16:51:01.444Z,101035.41
2022-11-08T16:53:32.491Z,101038.69
2022-11-08T16:55:59.631Z,101035.97
2022-11-08T16:58:28.197Z,101031.66
2022-11-08T17:00:56.090Z,101043.88
2022-11-08T17:03:24.743Z,101039.16
2022-11-08T17:05:52.282Z,101040.31
2022-11-08T17:08:20.526Z,101038.19
2022-11-08T17:10:47.746Z,101043.03
2022-11-08T17:13:16.024Z,101046.00
2022-11-08T17:15:43.380Z,101034.00
2022-11-08T17:18:12.105Z,101046.59
2022-11-08T17:20:39.702Z,101050.28
2022-11-08T17:23:07.332Z,101050.38
2022-11-08T17:25:35.144Z,101053.19
2022-11-08T17:28:02.558Z,101047.19
2022-11-08T17:30:29.685Z,101048.78
2022-11-08T17:32:56.936Z,101054.59
2022-11-08T17:35:24.186Z,101059.66
2022-11-08T17:37:53.459Z,101053.16
2022-11-08T17:40:20.776Z,101055.19
2022-11-08T17:42:48.354Z,101052.56
2022-11-08T17:45:15.372Z,101053.59
2022-11-08T17:47:42.554Z,101051.72
2022-11-08T17:50:10.232Z,101052.44
2022-11-08T17:52:40.300Z,101055.63
2022-11-08T17:55:07.606Z,101061.97
2022-11-08T17:57:34.966Z,101054.63
2022-11-08T18:00:02.311Z,101051.47
2022-11-08T18:02:29.732Z,101054.88
2022-11-08T18:04:57.414Z,101056.91
2022-11-08T18:07:24.894Z,101060.97
2022-11-08T18:09:51.788Z,101050.47
2022-11-08T18:12:19.543Z,101054.63
2022-11-08T18:14:46.404Z,101053.78
2022-11-08T18:17:13.593Z,101044.72
2022-11-08T18:19:40.504Z,101049.19
2022-11-08T18:22:07.712Z,101048.78
2022-11-08T18:24:34.656Z,101056.41
2022-11-08T18:27:02.025Z,101053.97
2022-11-08T18:29:28.872Z,101042.84
2022-11-08T18:31:56.125Z,101048.28
2022-11-08T18:34:22.950Z,101042.19
2022-11-08T18:36:50.159Z,101043.19
2022-11-08T18:39:19.722Z,101038.03
2022-11-08T18:41:47.382Z,101048.53
2022-11-08T18:44:14.313Z,101043.38
2022-11-08T18:46:43.470Z,101037.44
2022-11-08T18:49:11.207Z,101040.75
2022-11-08T18:51:52.100Z,101035.22
2022-11-08T18:54:20.056Z,101036.25
2022-11-08T18:56:47.283Z,101042.72
2022-11-08T18:59:14.484Z,101037.53
2022-11-08T19:01:41.809Z,101039.56
2022-11-08T19:04:08.921Z,101041.44
2022-11-08T19:06:37.497Z,101031.19
2022-11-08T19:09:04.705Z,101032.19
2022-11-08T19:11:31.903Z,101036.44
2022-11-08T19:13:59.228Z,101036.78
2022-11-08T19:16:26.554Z,101031.28
2022-11-08T19:18:53.593Z,101033.13
2022-11-08T19:21:25.054Z,101039.31
2022-11-08T19:23:53.112Z,101039.69
2022-11-08T19:26:22.494Z,101038.38
2022-11-08T19:28:50.365Z,101033.19
2022-11-08T19:31:19.122Z,101034.06
2022-11-08T19:33:47.061Z,101036.25
2022-11-08T19:36:15.899Z,101022.84
2022-11-08T19:38:43.008Z,101029.19
2022-11-08T19:41:20.431Z,101030.88
2022-11-08T19:43:47.988Z,101034.78
2022-11-08T19:46:20.086Z,101034.50
2022-11-08T19:48:49.500Z,101024.47
2022-11-08T19:51:18.364Z,101033.19
2022-11-08T19:53:45.673Z,101023.94
2022-11-08T19:56:17.696Z,101023.69
2022-11-08T19:58:45.166Z,101032.19
2022-11-08T20:01:23.117Z,101031.97
2022-11-08T20:03:50.454Z,101023.25
2022-11-08T20:06:19.631Z,101023.84
2022-11-08T20:08:51.166Z,101018.69
2022-11-08T20:11:20.004Z,101024.19
2022-11-08T20:13:47.335Z,101020.81
2022-11-08T20:16:22.675Z,101028.69
2022-11-08T20:18:50.024Z,101025.31
2022-11-08T20:21:18.090Z,101031.81
2022-11-08T20:23:46.223Z,101034.34
2022-11-08T20:26:16.651Z,101036.56
2022-11-08T20:28:55.203Z,101036.19
2022-11-08T20:31:24.245Z,101026.28
2022-11-08T20:33:53.097Z,101012.81
2022-11-08T20:36:22.980Z,101020.97
2022-11-08T20:38:50.832Z,101018.44
2022-11-08T20:41:18.597Z,101013.19
2022-11-08T20:43:47.736Z,101018.41
2022-11-08T20:46:15.976Z,101009.84
2022-11-08T20:48:44.341Z,101016.38
2022-11-08T20:51:13.322Z,101019.88
2022-11-08T20:53:40.712Z,101017.31
2022-11-08T20:56:09.576Z,101020.78
2022-11-08T20:58:38.007Z,101014.63
2022-11-08T21:01:06.738Z,101013.84
2022-11-08T21:03:34.588Z,101011.06
2022-11-08T21:06:05.990Z,101008.94
2022-11-08T21:11:21.894Z,101015.38
2022-11-08T21:13:49.613Z,101019.09
2022-11-08T21:16:47.082Z,101022.91
2022-11-08T21:19:04.411Z,101015.81
2022-11-08T21:21:31.980Z,101025.88
2022-11-08T21:23:59.720Z,101023.34
2022-11-08T21:26:26.766Z,101018.44
2022-11-08T21:28:54.402Z,101019.44
2022-11-08T21:31:21.524Z,101024.84
2022-11-08T21:33:48.902Z,101015.91
2022-11-08T21:36:17.467Z,101019.72
2022-11-08T21:38:44.735Z,101019.34
2022-11-08T21:41:12.539Z,101016.72
2022-11-08T21:43:45.372Z,101024.19
2022-11-08T21:46:15.253Z,101023.50
2022-11-08T21:48:42.931Z,101022.84
2022-11-08T21:51:10.390Z,101011.22
2022-11-08T21:53:47.923Z,101019.94
2022-11-08T21:56:19.800Z,101014.25
2022-11-08T21:58:47.259Z,101017.75
2022-11-08T22:01:14.595Z,101014.41
2022-11-08T22:03:41.845Z,101019.19
2022-11-08T22:06:08.867Z,101015.03
2022-11-08T22:08:36.847Z,101015.22
2022-11-08T22:11:04.233Z,101005.13
2022-11-08T22:13:31.466Z,101011.91
2022-11-08T22:15:58.353Z,101013.84
2022-11-08T22:18:43.475Z,101009.19
2022-11-08T22:21:31.952Z,101006.31
2022-11-08T22:23:59.218Z,101007.75
2022-11-08T22:26:26.064Z,101010.22
2022-11-08T22:28:53.258Z,101010.03
2022-11-08T22:31:21.118Z,101014.72
2022-11-08T22:33:48.015Z,101007.69
2022-11-08T22:36:16.137Z,101024.81
2022-11-08T22:38:42.988Z,101013.81
2022-11-08T22:41:10.276Z,101008.97
2022-11-08T22:43:37.562Z,101012.19
2022-11-08T22:46:04.795Z,101004.47
2022-11-08T22:48:31.725Z,101013.91
2022-11-08T22:50:59.380Z,101013.63
2022-11-08T22:53:26.387Z,101011.84
2022-11-08T22:55:53.667Z,101013.00
2022-11-08T22:58:20.584Z,101018.88
2022-11-08T23:00:49.204Z,101019.09
2022-11-08T23:03:16.590Z,101017.75
2022-11-08T23:05:48.819Z,101015.94
2022-11-08T23:08:16.098Z,101013.59
2022-11-08T23:11:01.736Z,101013.94
2022-11-08T23:13:47.307Z,101021.06
2022-11-08T23:16:35.266Z,101023.50
2022-11-08T23:19:21.524Z,101020.19
2022-11-08T23:22:07.197Z,101013.44
2022-11-08T23:24:34.139Z,101015.88
2022-11-08T23:27:20.575Z,101007.75
2022-11-08T23:30:06.583Z,101011.63
2022-11-08T23:32:34.536Z,101003.78
2022-11-08T23:35:01.697Z,101006.25
2022-11-08T23:37:29.795Z,101010.47
2022-11-08T23:40:15.109Z,101000.00
2022-11-08T23:43:00.747Z,101012.50
2022-11-08T23:45:27.745Z,101005.88
2022-11-08T23:47:55.126Z,101005.94
2022-11-08T23:50:22.199Z,101006.59
2022-11-08T23:52:49.512Z,101005.50
2022-11-08T23:55:16.418Z,101002.88
2022-11-08T23:57:43.623Z,101002.78
